Cervantes, Argentina
Current Conditions -  °F | °C
As of 12:00 PM on Friday 24 Oct 2014 (Local Time) from SAZN Reporting Station
Clear Clear  
Wind Chill: 68°   Ceiling: Unl
Heat Index: 68°   Visibility: 6mi
Dew Point: 46°   Wind: 8mph
Humidity: 46%   Direction: 70°ENE
Pressure: 30.09"   Gusts: NA
Location:  39.06°S, 67.34°W
Report Text: SAZN 241500Z 07007KT CAVOK 20/08 Q1019
Loading
Personal Weather Stations






























Interactive Weather Map
Tropical Storm Tracking
New forecast layout! Learn more

10-Day Weather Forecast

Advertisements
Track Severe Weather on mobile